sensor_id;sensor_type;location;lat;lon;timestamp;pressure;altitude;pressure_sealevel;temperature;humidity
56630;BME280;42502;40.732;-74.254;2023-05-09T00:01:53;99942.47;;;28.91;39.86
56630;BME280;42502;40.732;-74.254;2023-05-09T00:03:54;99943.72;;;28.89;40.46
56630;BME280;42502;40.732;-74.254;2023-05-09T00:05:55;99957.53;;;28.91;38.70
56630;BME280;42502;40.732;-74.254;2023-05-09T00:07:56;99960.72;;;28.93;38.23
56630;BME280;42502;40.732;-74.254;2023-05-09T00:09:56;99957.81;;;28.97;38.50
56630;BME280;42502;40.732;-74.254;2023-05-09T00:11:58;99967.16;;;28.97;38.88
56630;BME280;42502;40.732;-74.254;2023-05-09T00:13:59;99968.41;;;28.96;39.42
56630;BME280;42502;40.732;-74.254;2023-05-09T00:15:59;99969.63;;;28.95;38.74
56630;BME280;42502;40.732;-74.254;2023-05-09T00:18:00;99981.66;;;28.79;39.01
56630;BME280;42502;40.732;-74.254;2023-05-09T00:20:01;99974.16;;;28.62;39.35
56630;BME280;42502;40.732;-74.254;2023-05-09T00:22:04;99979.19;;;28.50;39.43
56630;BME280;42502;40.732;-74.254;2023-05-09T00:24:05;99969.94;;;28.43;40.42
56630;BME280;42502;40.732;-74.254;2023-05-09T00:26:12;99985.84;;;28.36;40.16
56630;BME280;42502;40.732;-74.254;2023-05-09T00:28:13;99981.19;;;28.50;41.32
56630;BME280;42502;40.732;-74.254;2023-05-09T00:30:14;99978.31;;;28.53;40.34
56630;BME280;42502;40.732;-74.254;2023-05-09T00:32:15;99980.47;;;28.46;40.04
56630;BME280;42502;40.732;-74.254;2023-05-09T00:35:55;99984.59;;;28.38;37.44
56630;BME280;42502;40.732;-74.254;2023-05-09T00:37:56;99986.72;;;28.30;36.88
56630;BME280;42502;40.732;-74.254;2023-05-09T00:40:00;99995.72;;;28.25;36.50
56630;BME280;42502;40.732;-74.254;2023-05-09T00:42:07;100001.50;;;28.17;36.49
56630;BME280;42502;40.732;-74.254;2023-05-09T00:44:08;100000.69;;;28.17;35.84
56630;BME280;42502;40.732;-74.254;2023-05-09T00:46:09;100009.22;;;28.13;35.65
56630;BME280;42502;40.732;-74.254;2023-05-09T00:48:14;100007.66;;;28.12;35.64
56630;BME280;42502;40.732;-74.254;2023-05-09T00:50:15;100018.59;;;28.10;35.45
56630;BME280;42502;40.732;-74.254;2023-05-09T00:52:16;100022.69;;;28.09;35.37
56630;BME280;42502;40.732;-74.254;2023-05-09T00:54:20;100029.22;;;28.06;35.60
56630;BME280;42502;40.732;-74.254;2023-05-09T00:56:21;100035.31;;;28.05;34.88
56630;BME280;42502;40.732;-74.254;2023-05-09T00:58:25;100036.94;;;28.02;35.08
56630;BME280;42502;40.732;-74.254;2023-05-09T01:00:26;100042.25;;;28.00;34.72
56630;BME280;42502;40.732;-74.254;2023-05-09T01:50:49;100162.19;;;25.80;35.57
56630;BME280;42502;40.732;-74.254;2023-05-09T01:52:54;100160.59;;;25.94;35.14
56630;BME280;42502;40.732;-74.254;2023-05-09T01:54:58;100168.69;;;26.17;34.44
56630;BME280;42502;40.732;-74.254;2023-05-09T01:57:03;100164.25;;;26.37;33.41
56630;BME280;42502;40.732;-74.254;2023-05-09T01:59:09;100163.78;;;26.57;32.86
56630;BME280;42502;40.732;-74.254;2023-05-09T02:01:15;100160.94;;;26.71;32.39
56630;BME280;42502;40.732;-74.254;2023-05-09T02:03:17;100162.91;;;26.85;32.22
56630;BME280;42502;40.732;-74.254;2023-05-09T02:05:18;100159.66;;;26.94;31.65
56630;BME280;42502;40.732;-74.254;2023-05-09T02:07:24;100152.34;;;27.00;30.88
56630;BME280;42502;40.732;-74.254;2023-05-09T02:09:26;100153.13;;;27.04;30.87
56630;BME280;42502;40.732;-74.254;2023-05-09T02:11:27;100148.22;;;27.08;30.77
56630;BME280;42502;40.732;-74.254;2023-05-09T02:13:28;100147.41;;;27.11;30.92
56630;BME280;42502;40.732;-74.254;2023-05-09T02:15:29;100159.16;;;27.13;30.83
56630;BME280;42502;40.732;-74.254;2023-05-09T02:17:30;100157.91;;;27.15;30.89
56630;BME280;42502;40.732;-74.254;2023-05-09T02:19:34;100161.59;;;27.15;30.62
56630;BME280;42502;40.732;-74.254;2023-05-09T02:21:35;100158.34;;;27.17;30.51
56630;BME280;42502;40.732;-74.254;2023-05-09T02:23:36;100166.84;;;27.17;30.18
56630;BME280;42502;40.732;-74.254;2023-05-09T02:25:38;100171.69;;;27.16;30.16
56630;BME280;42502;40.732;-74.254;2023-05-09T02:27:42;100171.31;;;27.14;29.77
56630;BME280;42502;40.732;-74.254;2023-05-09T02:29:47;100171.72;;;27.12;29.53
56630;BME280;42502;40.732;-74.254;2023-05-09T02:31:50;100166.84;;;27.13;29.34
56630;BME280;42502;40.732;-74.254;2023-05-09T02:33:53;100176.19;;;27.13;30.15
56630;BME280;42502;40.732;-74.254;2023-05-09T02:35:55;100179.41;;;27.16;29.82
56630;BME280;42502;40.732;-74.254;2023-05-09T02:38:00;100180.59;;;27.15;29.46
56630;BME280;42502;40.732;-74.254;2023-05-09T02:40:01;100188.72;;;27.12;29.60
56630;BME280;42502;40.732;-74.254;2023-05-09T02:42:08;100183.47;;;27.11;29.29
56630;BME280;42502;40.732;-74.254;2023-05-09T02:44:15;100191.56;;;27.12;29.19
56630;BME280;42502;40.732;-74.254;2023-05-09T02:46:16;100184.28;;;27.08;29.35
56630;BME280;42502;40.732;-74.254;2023-05-09T02:48:19;100187.13;;;27.08;29.46
56630;BME280;42502;40.732;-74.254;2023-05-09T02:50:20;100198.50;;;27.04;28.62
56630;BME280;42502;40.732;-74.254;2023-05-09T02:52:21;100199.31;;;27.01;28.65
56630;BME280;42502;40.732;-74.254;2023-05-09T02:54:22;100188.81;;;26.98;28.47
56630;BME280;42502;40.732;-74.254;2023-05-09T02:56:22;100177.47;;;26.94;28.46
56630;BME280;42502;40.732;-74.254;2023-05-09T02:58:23;100189.59;;;26.95;28.44
56630;BME280;42502;40.732;-74.254;2023-05-09T03:00:24;100183.53;;;26.93;28.72
56630;BME280;42502;40.732;-74.254;2023-05-09T03:02:25;100194.47;;;26.91;28.52
56630;BME280;42502;40.732;-74.254;2023-05-09T03:04:26;100192.84;;;26.90;29.13
56630;BME280;42502;40.732;-74.254;2023-05-09T03:06:27;100192.47;;;26.88;28.83
56630;BME280;42502;40.732;-74.254;2023-05-09T03:08:30;100190.03;;;26.86;28.89
56630;BME280;42502;40.732;-74.254;2023-05-09T03:10:31;100192.47;;;26.84;28.26
56630;BME280;42502;40.732;-74.254;2023-05-09T03:12:32;100193.28;;;26.81;28.27
56630;BME280;42502;40.732;-74.254;2023-05-09T03:14:33;100187.22;;;26.79;28.30
56630;BME280;42502;40.732;-74.254;2023-05-09T03:16:33;100187.22;;;26.79;28.49
56630;BME280;42502;40.732;-74.254;2023-05-09T03:18:34;100196.13;;;26.77;28.35
56630;BME280;42502;40.732;-74.254;2023-05-09T03:20:35;100193.31;;;26.77;28.43
56630;BME280;42502;40.732;-74.254;2023-05-09T03:22:36;100199.38;;;26.80;28.93
56630;BME280;42502;40.732;-74.254;2023-05-09T03:24:40;100198.16;;;26.81;29.31
56630;BME280;42502;40.732;-74.254;2023-05-09T03:26:41;100198.56;;;26.79;29.02
56630;BME280;42502;40.732;-74.254;2023-05-09T03:28:44;100205.03;;;26.80;29.16
56630;BME280;42502;40.732;-74.254;2023-05-09T03:30:45;100205.44;;;26.82;29.57
56630;BME280;42502;40.732;-74.254;2023-05-09T03:32:46;100204.22;;;26.83;29.89
56630;BME280;42502;40.732;-74.254;2023-05-09T03:34:47;100207.47;;;26.85;30.08
56630;BME280;42502;40.732;-74.254;2023-05-09T03:36:48;100213.13;;;26.85;30.46
56630;BME280;42502;40.732;-74.254;2023-05-09T03:38:51;100209.06;;;26.86;30.29
56630;BME280;42502;40.732;-74.254;2023-05-09T03:40:52;100209.06;;;26.86;30.57
56630;BME280;42502;40.732;-74.254;2023-05-09T03:42:53;100209.88;;;26.86;30.79
56630;BME280;42502;40.732;-74.254;2023-05-09T03:44:54;100219.56;;;26.89;31.02
56630;BME280;42502;40.732;-74.254;2023-05-09T03:46:55;100228.06;;;26.89;31.06
56630;BME280;42502;40.732;-74.254;2023-05-09T03:48:56;100231.75;;;26.89;31.15
56630;BME280;42502;40.732;-74.254;2023-05-09T03:50:56;100226.06;;;26.89;31.21
56630;BME280;42502;40.732;-74.254;2023-05-09T03:52:57;100226.88;;;26.90;31.15
56630;BME280;42502;40.732;-74.254;2023-05-09T03:54:58;100231.31;;;26.91;31.34
56630;BME280;42502;40.732;-74.254;2023-05-09T03:56:59;100232.53;;;26.90;31.81
56630;BME280;42502;40.732;-74.254;2023-05-09T03:59:00;100239.00;;;26.90;31.74
56630;BME280;42502;40.732;-74.254;2023-05-09T04:01:01;100232.13;;;26.91;31.85
56630;BME280;42502;40.732;-74.254;2023-05-09T04:03:02;100242.66;;;26.91;31.59
56630;BME280;42502;40.732;-74.254;2023-05-09T04:05:03;100244.25;;;26.92;31.57
56630;BME280;42502;40.732;-74.254;2023-05-09T04:07:07;100241.44;;;26.92;31.78
56630;BME280;42502;40.732;-74.254;2023-05-09T04:09:08;100243.06;;;26.93;31.83
56630;BME280;42502;40.732;-74.254;2023-05-09T04:11:09;100249.13;;;26.91;32.29
56630;BME280;42502;40.732;-74.254;2023-05-09T04:13:10;100246.31;;;26.91;32.01
56630;BME280;42502;40.732;-74.254;2023-05-09T04:15:11;100249.13;;;26.91;31.92
56630;BME280;42502;40.732;-74.254;2023-05-09T04:17:12;100254.00;;;26.91;32.29
56630;BME280;42502;40.732;-74.254;2023-05-09T04:19:15;100242.25;;;26.89;32.25
56630;BME280;42502;40.732;-74.254;2023-05-09T04:21:16;100260.88;;;26.90;32.12
56630;BME280;42502;40.732;-74.254;2023-05-09T04:23:26;100251.16;;;26.91;31.90
56630;BME280;42502;40.732;-74.254;2023-05-09T04:25:27;100248.75;;;26.89;32.26
56630;BME280;42502;40.732;-74.254;2023-05-09T04:27:28;100248.75;;;26.89;32.15
56630;BME280;42502;40.732;-74.254;2023-05-09T04:29:29;100241.44;;;26.88;32.15
56630;BME280;42502;40.732;-74.254;2023-05-09T04:31:30;100248.75;;;26.89;32.05
56630;BME280;42502;40.732;-74.254;2023-05-09T04:33:31;100239.81;;;26.87;32.12
56630;BME280;42502;40.732;-74.254;2023-05-09T04:35:32;100247.53;;;26.87;32.26
56630;BME280;42502;40.732;-74.254;2023-05-09T04:37:33;100245.91;;;26.86;32.60
56630;BME280;42502;40.732;-74.254;2023-05-09T04:39:34;100242.25;;;26.85;32.15
56630;BME280;42502;40.732;-74.254;2023-05-09T04:41:35;100229.72;;;26.83;32.17
56630;BME280;42502;40.732;-74.254;2023-05-09T04:43:36;100225.28;;;26.78;32.57
56630;BME280;42502;40.732;-74.254;2023-05-09T04:45:37;100222.44;;;26.82;32.31
56630;BME280;42502;40.732;-74.254;2023-05-09T04:47:40;100229.31;;;26.81;32.45
56630;BME280;42502;40.732;-74.254;2023-05-09T04:49:41;100226.50;;;26.81;32.62
56630;BME280;42502;40.732;-74.254;2023-05-09T04:51:44;100226.09;;;26.79;32.29
56630;BME280;42502;40.732;-74.254;2023-05-09T04:53:48;100228.13;;;26.74;32.12
56630;BME280;42502;40.732;-74.254;2023-05-09T04:55:50;100235.81;;;26.77;32.41
56630;BME280;42502;40.732;-74.254;2023-05-09T04:57:51;100231.34;;;26.76;32.72
56630;BME280;42502;40.732;-74.254;2023-05-09T04:59:58;100228.50;;;26.76;32.37
56630;BME280;42502;40.732;-74.254;2023-05-09T05:01:58;100230.97;;;26.74;32.39
56630;BME280;42502;40.732;-74.254;2023-05-09T05:03:59;100227.75;;;26.72;32.20
56630;BME280;42502;40.732;-74.254;2023-05-09T05:06:00;100238.25;;;26.72;32.15
56630;BME280;42502;40.732;-74.254;2023-05-09T05:08:01;100240.28;;;26.71;32.46
56630;BME280;42502;40.732;-74.254;2023-05-09T05:10:02;100230.56;;;26.69;32.45
56630;BME280;42502;40.732;-74.254;2023-05-09T05:12:03;100236.22;;;26.69;32.02
56630;BME280;42502;40.732;-74.254;2023-05-09T05:14:06;100241.09;;;26.68;32.28
56630;BME280;42502;40.732;-74.254;2023-05-09T05:16:07;100240.69;;;26.66;32.43
56630;BME280;42502;40.732;-74.254;2023-05-09T05:18:08;100239.84;;;26.66;32.41
56630;BME280;42502;40.732;-74.254;2023-05-09T05:20:09;100241.06;;;26.65;32.20
56630;BME280;42502;40.732;-74.254;2023-05-09T05:22:10;100243.09;;;26.64;32.44
56630;BME280;42502;40.732;-74.254;2023-05-09T05:24:11;100247.13;;;26.63;32.26
56630;BME280;42502;40.732;-74.254;2023-05-09T05:26:12;100245.53;;;26.62;32.37
56630;BME280;42502;40.732;-74.254;2023-05-09T05:28:12;100241.88;;;26.62;32.30
56630;BME280;42502;40.732;-74.254;2023-05-09T05:30:13;100243.91;;;26.61;32.68
56630;BME280;42502;40.732;-74.254;2023-05-09T05:32:19;100242.28;;;26.60;32.18
56630;BME280;42502;40.732;-74.254;2023-05-09T05:34:20;100242.28;;;26.60;32.32
56630;BME280;42502;40.732;-74.254;2023-05-09T05:36:21;100243.50;;;26.59;32.57
56630;BME280;42502;40.732;-74.254;2023-05-09T05:38:22;100238.25;;;26.57;32.39
56630;BME280;42502;40.732;-74.254;2023-05-09T05:40:25;100240.25;;;26.57;32.53
56630;BME280;42502;40.732;-74.254;2023-05-09T05:42:26;100235.00;;;26.55;32.52
56630;BME280;42502;40.732;-74.254;2023-05-09T05:44:27;100239.06;;;26.54;32.46
56630;BME280;42502;40.732;-74.254;2023-05-09T05:46:28;100241.91;;;26.54;32.27
56630;BME280;42502;40.732;-74.254;2023-05-09T05:48:31;100232.19;;;26.52;32.13
56630;BME280;42502;40.732;-74.254;2023-05-09T05:50:35;100232.97;;;26.52;32.07
56630;BME280;42502;40.732;-74.254;2023-05-09T05:52:40;100235.00;;;26.52;32.43
56630;BME280;42502;40.732;-74.254;2023-05-09T05:54:41;100239.03;;;26.51;32.28
56630;BME280;42502;40.732;-74.254;2023-05-09T05:56:41;100238.66;;;26.49;32.15
56630;BME280;42502;40.732;-74.254;2023-05-09T05:58:42;100242.69;;;26.48;32.35
56630;BME280;42502;40.732;-74.254;2023-05-09T06:00:43;100230.97;;;26.46;32.06
56630;BME280;42502;40.732;-74.254;2023-05-09T06:02:44;100240.28;;;26.46;32.50
56630;BME280;42502;40.732;-74.254;2023-05-09T06:04:45;100236.63;;;26.46;32.29
56630;BME280;42502;40.732;-74.254;2023-05-09T06:06:45;100234.22;;;26.44;32.51
56630;BME280;42502;40.732;-74.254;2023-05-09T06:08:47;100240.28;;;26.42;32.45
56630;BME280;42502;40.732;-74.254;2023-05-09T06:10:49;100236.66;;;26.42;32.44
56630;BME280;42502;40.732;-74.254;2023-05-09T06:12:50;100232.19;;;26.41;32.32
56630;BME280;42502;40.732;-74.254;2023-05-09T06:14:50;100230.97;;;26.38;32.24
56630;BME280;42502;40.732;-74.254;2023-05-09T06:16:52;100230.56;;;26.36;32.52
56630;BME280;42502;40.732;-74.254;2023-05-09T06:18:53;100228.53;;;26.37;32.39
56630;BME280;42502;40.732;-74.254;2023-05-09T06:20:54;100233.41;;;26.36;32.49
56630;BME280;42502;40.732;-74.254;2023-05-09T06:22:55;100230.19;;;26.34;32.13
56630;BME280;42502;40.732;-74.254;2023-05-09T06:24:58;100228.56;;;26.33;32.38
56630;BME280;42502;40.732;-74.254;2023-05-09T06:26:59;100239.88;;;26.33;32.61
56630;BME280;42502;40.732;-74.254;2023-05-09T06:29:00;100226.13;;;26.32;32.55
56630;BME280;42502;40.732;-74.254;2023-05-09T06:31:01;100230.16;;;26.31;32.42
56630;BME280;42502;40.732;-74.254;2023-05-09T06:33:02;100229.38;;;26.30;32.35
56630;BME280;42502;40.732;-74.254;2023-05-09T06:35:06;100232.59;;;26.29;32.59
56630;BME280;42502;40.732;-74.254;2023-05-09T06:37:07;100233.81;;;26.28;32.62
56630;BME280;42502;40.732;-74.254;2023-05-09T06:39:07;100228.16;;;26.28;32.32
56630;BME280;42502;40.732;-74.254;2023-05-09T06:41:08;100227.75;;;26.26;32.51
56630;BME280;42502;40.732;-74.254;2023-05-09T06:43:09;100233.81;;;26.24;32.44
56630;BME280;42502;40.732;-74.254;2023-05-09T06:45:10;100224.50;;;26.20;32.19
56630;BME280;42502;40.732;-74.254;2023-05-09T06:47:11;100229.38;;;26.23;32.61
56630;BME280;42502;40.732;-74.254;2023-05-09T06:49:12;100226.13;;;26.21;32.53
56630;BME280;42502;40.732;-74.254;2023-05-09T06:51:13;100225.72;;;26.19;32.54
56630;BME280;42502;40.732;-74.254;2023-05-09T06:53:14;100231.38;;;26.19;32.20
56630;BME280;42502;40.732;-74.254;2023-05-09T06:55:15;100232.59;;;26.18;32.43
56630;BME280;42502;40.732;-74.254;2023-05-09T06:57:16;100229.34;;;26.16;32.35
56630;BME280;42502;40.732;-74.254;2023-05-09T06:59:17;100235.00;;;26.16;32.61
56630;BME280;42502;40.732;-74.254;2023-05-09T07:01:18;100235.00;;;26.16;32.40
56630;BME280;42502;40.732;-74.254;2023-05-09T07:03:19;100235.03;;;26.12;32.45
56630;BME280;42502;40.732;-74.254;2023-05-09T07:05:20;100235.03;;;26.12;32.25
56630;BME280;42502;40.732;-74.254;2023-05-09T07:07:21;100238.66;;;26.13;32.29
56630;BME280;42502;40.732;-74.254;2023-05-09T07:09:21;100242.28;;;26.10;32.03
56630;BME280;42502;40.732;-74.254;2023-05-09T07:11:27;100241.50;;;26.09;32.29
56630;BME280;42502;40.732;-74.254;2023-05-09T07:13:27;100249.97;;;26.09;32.27
56630;BME280;42502;40.732;-74.254;2023-05-09T07:15:28;100244.72;;;26.08;32.19
56630;BME280;42502;40.732;-74.254;2023-05-09T07:17:32;100252.00;;;26.05;32.37
56630;BME280;42502;40.732;-74.254;2023-05-09T07:19:33;100255.66;;;26.05;32.26
56630;BME280;42502;40.732;-74.254;2023-05-09T07:21:34;100261.72;;;26.04;32.36
56630;BME280;42502;40.732;-74.254;2023-05-09T07:23:34;100264.53;;;26.04;32.25
56630;BME280;42502;40.732;-74.254;2023-05-09T07:25:35;100254.81;;;26.01;32.31
56630;BME280;42502;40.732;-74.254;2023-05-09T07:27:37;100248.75;;;25.99;32.42
56630;BME280;42502;40.732;-74.254;2023-05-09T07:29:37;100261.69;;;26.00;32.34
56630;BME280;42502;40.732;-74.254;2023-05-09T07:31:38;100265.28;;;25.97;32.28
56630;BME280;42502;40.732;-74.254;2023-05-09T07:33:39;100269.31;;;25.96;32.44
56630;BME280;42502;40.732;-74.254;2023-05-09T07:35:40;100268.53;;;25.96;32.16
56630;BME280;42502;40.732;-74.254;2023-05-09T07:37:41;100269.72;;;25.95;32.24
56630;BME280;42502;40.732;-74.254;2023-05-09T07:39:41;100279.44;;;25.94;32.57
56630;BME280;42502;40.732;-74.254;2023-05-09T07:41:42;100283.47;;;25.93;32.14
56630;BME280;42502;40.732;-74.254;2023-05-09T07:43:43;100282.69;;;25.92;32.63
56630;BME280;42502;40.732;-74.254;2023-05-09T07:45:44;100270.53;;;25.92;32.31
56630;BME280;42502;40.732;-74.254;2023-05-09T07:47:46;100277.81;;;25.89;32.54
56630;BME280;42502;40.732;-74.254;2023-05-09T07:49:47;100277.81;;;25.89;31.99
56630;BME280;42502;40.732;-74.254;2023-05-09T07:51:48;100270.53;;;25.88;32.28
56630;BME280;42502;40.732;-74.254;2023-05-09T07:53:48;100272.56;;;25.87;32.35
56630;BME280;42502;40.732;-74.254;2023-05-09T07:55:49;100277.00;;;25.85;32.40
56630;BME280;42502;40.732;-74.254;2023-05-09T07:57:50;100277.00;;;25.85;32.38
56630;BME280;42502;40.732;-74.254;2023-05-09T07:59:51;100278.19;;;25.84;32.37
56630;BME280;42502;40.732;-74.254;2023-05-09T08:01:52;100273.34;;;25.77;32.10
56630;BME280;42502;40.732;-74.254;2023-05-09T08:03:53;100280.63;;;25.82;32.11
56630;BME280;42502;40.732;-74.254;2023-05-09T08:05:54;100284.66;;;25.81;32.38
56630;BME280;42502;40.732;-74.254;2023-05-09T08:07:55;100282.22;;;25.79;32.01
56630;BME280;42502;40.732;-74.254;2023-05-09T08:09:56;100282.63;;;25.78;32.38
56630;BME280;42502;40.732;-74.254;2023-05-09T08:12:00;100278.19;;;25.77;32.02
56630;BME280;42502;40.732;-74.254;2023-05-09T08:14:01;100283.88;;;25.77;32.25
56630;BME280;42502;40.732;-74.254;2023-05-09T08:16:02;100278.59;;;25.75;32.38
56630;BME280;42502;40.732;-74.254;2023-05-09T08:18:06;100276.19;;;25.74;32.39
56630;BME280;42502;40.732;-74.254;2023-05-09T08:20:07;100288.69;;;25.73;32.32
56630;BME280;42502;40.732;-74.254;2023-05-09T08:22:08;100285.03;;;25.72;32.19
56630;BME280;42502;40.732;-74.254;2023-05-09T08:24:09;100272.13;;;25.71;31.92
56630;BME280;42502;40.732;-74.254;2023-05-09T08:26:13;100272.50;;;25.66;32.03
56630;BME280;42502;40.732;-74.254;2023-05-09T08:28:16;100281.00;;;25.69;32.27
56630;BME280;42502;40.732;-74.254;2023-05-09T08:30:17;100280.97;;;25.66;32.25
56630;BME280;42502;40.732;-74.254;2023-05-09T08:32:18;100282.59;;;25.67;32.40
56630;BME280;42502;40.732;-74.254;2023-05-09T08:34:19;100280.19;;;25.65;32.08
56630;BME280;42502;40.732;-74.254;2023-05-09T08:36:20;100289.84;;;25.64;31.96
56630;BME280;42502;40.732;-74.254;2023-05-09T08:38:21;100288.25;;;25.63;31.99
56630;BME280;42502;40.732;-74.254;2023-05-09T08:40:23;100287.84;;;25.61;32.09
56630;BME280;42502;40.732;-74.254;2023-05-09T08:42:24;100286.22;;;25.60;32.33
56630;BME280;42502;40.732;-74.254;2023-05-09T08:44:28;100291.88;;;25.60;31.89
56630;BME280;42502;40.732;-74.254;2023-05-09T08:46:34;100301.56;;;25.59;32.07
56630;BME280;42502;40.732;-74.254;2023-05-09T08:48:41;100305.19;;;25.56;32.15
56630;BME280;42502;40.732;-74.254;2023-05-09T08:50:43;100303.56;;;25.55;32.34
56630;BME280;42502;40.732;-74.254;2023-05-09T08:52:44;100303.97;;;25.53;32.15
56630;BME280;42502;40.732;-74.254;2023-05-09T08:54:45;100306.78;;;25.53;32.28
56630;BME280;42502;40.732;-74.254;2023-05-09T08:56:46;100314.47;;;25.53;32.14
56630;BME280;42502;40.732;-74.254;2023-05-09T08:58:47;100309.22;;;25.51;31.93
56630;BME280;42502;40.732;-74.254;2023-05-09T09:00:48;100306.00;;;25.49;32.09
56630;BME280;42502;40.732;-74.254;2023-05-09T09:02:53;100302.34;;;25.49;31.90
56630;BME280;42502;40.732;-74.254;2023-05-09T09:04:54;100305.16;;;25.49;32.22
56630;BME280;42502;40.732;-74.254;2023-05-09T09:06:56;100303.97;;;25.46;32.02
56630;BME280;42502;40.732;-74.254;2023-05-09T09:09:00;100306.78;;;25.46;31.92
56630;BME280;42502;40.732;-74.254;2023-05-09T09:11:01;100306.34;;;25.44;32.19
56630;BME280;42502;40.732;-74.254;2023-05-09T09:13:02;100299.09;;;25.43;31.91
56630;BME280;42502;40.732;-74.254;2023-05-09T09:15:05;100301.09;;;25.43;31.97
56630;BME280;42502;40.732;-74.254;2023-05-09T09:17:10;100308.34;;;25.40;31.92
56630;BME280;42502;40.732;-74.254;2023-05-09T09:19:16;100306.75;;;25.39;32.19
56630;BME280;42502;40.732;-74.254;2023-05-09T09:21:18;100310.78;;;25.38;32.08
56630;BME280;42502;40.732;-74.254;2023-05-09T09:23:21;100316.44;;;25.38;32.08
56630;BME280;42502;40.732;-74.254;2023-05-09T09:25:23;100315.19;;;25.35;32.21
56630;BME280;42502;40.732;-74.254;2023-05-09T09:27:24;100311.56;;;25.35;32.15
56630;BME280;42502;40.732;-74.254;2023-05-09T09:29:28;100315.59;;;25.34;32.14
56630;BME280;42502;40.732;-74.254;2023-05-09T09:31:30;100311.16;;;25.33;32.15
56630;BME280;42502;40.732;-74.254;2023-05-09T09:33:34;100316.38;;;25.31;31.90
56630;BME280;42502;40.732;-74.254;2023-05-09T09:35:38;100317.59;;;25.30;32.03
56630;BME280;42502;40.732;-74.254;2023-05-09T09:37:43;100312.31;;;25.28;31.84
56630;BME280;42502;40.732;-74.254;2023-05-09T09:39:54;100315.53;;;25.27;32.14
56630;BME280;42502;40.732;-74.254;2023-05-09T09:41:55;100322.00;;;25.27;31.84
56630;BME280;42502;40.732;-74.254;2023-05-09T09:43:56;100313.91;;;25.26;32.12
56630;BME280;42502;40.732;-74.254;2023-05-09T09:46:02;100319.16;;;25.24;31.94
56630;BME280;42502;40.732;-74.254;2023-05-09T09:48:04;100320.34;;;25.23;31.85
56630;BME280;42502;40.732;-74.254;2023-05-09T09:50:11;100327.66;;;25.24;31.80
56630;BME280;42502;40.732;-74.254;2023-05-09T09:52:22;100327.22;;;25.22;31.77
56630;BME280;42502;40.732;-74.254;2023-05-09T09:54:27;100322.78;;;25.21;31.67
56630;BME280;42502;40.732;-74.254;2023-05-09T09:56:48;100313.06;;;25.18;31.80
56630;BME280;42502;40.732;-74.254;2023-05-09T09:58:49;100309.84;;;25.16;32.03
56630;BME280;42502;40.732;-74.254;2023-05-09T10:01:10;100330.00;;;25.14;31.94
56630;BME280;42502;40.732;-74.254;2023-05-09T10:03:14;100342.13;;;25.15;31.91
56630;BME280;42502;40.732;-74.254;2023-05-09T10:05:26;100346.16;;;25.14;31.69
56630;BME280;42502;40.732;-74.254;2023-05-09T10:07:32;100338.06;;;25.12;31.98
56630;BME280;42502;40.732;-74.254;2023-05-09T10:09:35;100336.47;;;25.11;31.65
56630;BME280;42502;40.732;-74.254;2023-05-09T10:11:40;100341.66;;;25.09;31.71
56630;BME280;42502;40.732;-74.254;2023-05-09T10:13:41;100350.53;;;25.08;31.86
56630;BME280;42502;40.732;-74.254;2023-05-09T10:15:43;100364.69;;;25.08;31.65
56630;BME280;42502;40.732;-74.254;2023-05-09T10:17:44;100367.09;;;25.06;31.63
56630;BME280;42502;40.732;-74.254;2023-05-09T10:19:46;100361.00;;;25.04;31.55
56630;BME280;42502;40.732;-74.254;2023-05-09T10:21:57;100369.47;;;25.04;31.68
56630;BME280;42502;40.732;-74.254;2023-05-09T10:23:59;100369.06;;;25.01;31.79
56630;BME280;42502;40.732;-74.254;2023-05-09T10:26:10;100373.09;;;25.00;31.74
56630;BME280;42502;40.732;-74.254;2023-05-09T10:28:17;100389.25;;;25.00;31.82
56630;BME280;42502;40.732;-74.254;2023-05-09T10:30:27;100388.00;;;24.97;31.87
56630;BME280;42502;40.732;-74.254;2023-05-09T10:33:22;100400.16;;;24.98;31.56
56630;BME280;42502;40.732;-74.254;2023-05-09T10:35:07;100400.53;;;24.96;31.61
56630;BME280;42502;40.732;-74.254;2023-05-09T10:37:07;100389.22;;;24.96;31.65
56630;BME280;42502;40.732;-74.254;2023-05-09T10:39:09;100390.03;;;24.97;31.49
56630;BME280;42502;40.732;-74.254;2023-05-09T10:41:10;100392.06;;;24.96;31.68
56630;BME280;42502;40.732;-74.254;2023-05-09T10:43:15;100388.00;;;24.94;31.45
56630;BME280;42502;40.732;-74.254;2023-05-09T10:45:16;100394.84;;;24.93;31.65
56630;BME280;42502;40.732;-74.254;2023-05-09T10:47:17;100395.22;;;24.91;31.46
56630;BME280;42502;40.732;-74.254;2023-05-09T10:49:19;100390.38;;;24.88;31.52
56630;BME280;42502;40.732;-74.254;2023-05-09T10:51:23;100391.59;;;24.87;31.57
56630;BME280;42502;40.732;-74.254;2023-05-09T10:53:42;100395.19;;;24.84;31.47
56630;BME280;42502;40.732;-74.254;2023-05-09T10:55:55;100397.19;;;24.83;31.56
56630;BME280;42502;40.732;-74.254;2023-05-09T11:00:23;100395.97;;;24.81;31.13
56630;BME280;42502;40.732;-74.254;2023-05-09T11:02:24;100394.34;;;24.80;31.42
56630;BME280;42502;40.732;-74.254;2023-05-09T11:04:29;100398.81;;;24.81;31.37
56630;BME280;42502;40.732;-74.254;2023-05-09T11:08:46;100406.84;;;24.79;31.15
56630;BME280;42502;40.732;-74.254;2023-05-09T11:10:48;100405.97;;;24.75;31.09
56630;BME280;42502;40.732;-74.254;2023-05-09T11:12:59;100412.84;;;24.74;31.03
56630;BME280;42502;40.732;-74.254;2023-05-09T11:15:05;100401.56;;;24.74;31.10
56630;BME280;42502;40.732;-74.254;2023-05-09T11:17:09;100400.72;;;24.73;30.80
56630;BME280;42502;40.732;-74.254;2023-05-09T11:19:13;100400.31;;;24.71;31.10